sensor_id;sensor_type;location;lat;lon;timestamp;P1;durP1;ratioP1;P2;durP2;ratioP2
9520;SDS011;4798;41.574;23.734;2024-03-02T00:01:59;2.60;;;0.97;;
9520;SDS011;4798;41.574;23.734;2024-03-02T00:04:28;0.87;;;0.87;;
9520;SDS011;4798;41.574;23.734;2024-03-02T00:06:56;0.30;;;0.20;;
9520;SDS011;4798;41.574;23.734;2024-03-02T00:09:25;0.40;;;0.37;;
9520;SDS011;4798;41.574;23.734;2024-03-02T00:11:54;0.40;;;0.40;;
9520;SDS011;4798;41.574;23.734;2024-03-02T00:14:23;0.50;;;0.40;;
9520;SDS011;4798;41.574;23.734;2024-03-02T00:16:52;0.70;;;0.50;;
9520;SDS011;4798;41.574;23.734;2024-03-02T00:19:25;1.20;;;1.10;;
9520;SDS011;4798;41.574;23.734;2024-03-02T00:21:53;0.70;;;0.60;;
9520;SDS011;4798;41.574;23.734;2024-03-02T00:24:26;1.33;;;0.53;;
9520;SDS011;4798;41.574;23.734;2024-03-02T00:27:00;0.57;;;0.40;;
9520;SDS011;4798;41.574;23.734;2024-03-02T00:29:31;0.70;;;0.70;;
9520;SDS011;4798;41.574;23.734;2024-03-02T00:32:00;0.43;;;0.33;;
9520;SDS011;4798;41.574;23.734;2024-03-02T00:34:30;0.50;;;0.33;;
9520;SDS011;4798;41.574;23.734;2024-03-02T00:37:00;0.63;;;0.60;;
9520;SDS011;4798;41.574;23.734;2024-03-02T00:39:29;0.40;;;0.30;;
9520;SDS011;4798;41.574;23.734;2024-03-02T00:41:58;0.47;;;0.37;;
9520;SDS011;4798;41.574;23.734;2024-03-02T00:44:27;0.30;;;0.30;;
9520;SDS011;4798;41.574;23.734;2024-03-02T00:47:00;0.40;;;0.40;;
9520;SDS011;4798;41.574;23.734;2024-03-02T00:49:31;0.50;;;0.40;;
9520;SDS011;4798;41.574;23.734;2024-03-02T00:51:59;0.50;;;0.30;;
9520;SDS011;4798;41.574;23.734;2024-03-02T00:54:28;0.40;;;0.40;;
9520;SDS011;4798;41.574;23.734;2024-03-02T00:56:58;2.43;;;2.23;;
9520;SDS011;4798;41.574;23.734;2024-03-02T00:59:27;0.93;;;0.60;;
9520;SDS011;4798;41.574;23.734;2024-03-02T01:01:56;1.03;;;0.40;;
9520;SDS011;4798;41.574;23.734;2024-03-02T01:04:25;1.33;;;0.57;;
9520;SDS011;4798;41.574;23.734;2024-03-02T01:06:55;0.90;;;0.90;;
9520;SDS011;4798;41.574;23.734;2024-03-02T01:09:25;0.87;;;0.60;;
9520;SDS011;4798;41.574;23.734;2024-03-02T01:11:54;0.43;;;0.37;;
9520;SDS011;4798;41.574;23.734;2024-03-02T01:14:23;0.40;;;0.30;;
9520;SDS011;4798;41.574;23.734;2024-03-02T01:16:51;0.57;;;0.57;;
9520;SDS011;4798;41.574;23.734;2024-03-02T01:19:20;0.57;;;0.57;;
9520;SDS011;4798;41.574;23.734;2024-03-02T01:21:49;0.60;;;0.60;;
9520;SDS011;4798;41.574;23.734;2024-03-02T01:24:19;0.80;;;0.30;;
9520;SDS011;4798;41.574;23.734;2024-03-02T01:26:48;0.60;;;0.50;;
9520;SDS011;4798;41.574;23.734;2024-03-02T01:29:17;0.50;;;0.30;;
9520;SDS011;4798;41.574;23.734;2024-03-02T01:31:46;0.70;;;0.50;;
9520;SDS011;4798;41.574;23.734;2024-03-02T01:34:13;2.27;;;0.40;;
9520;SDS011;4798;41.574;23.734;2024-03-02T01:36:43;1.23;;;1.13;;
9520;SDS011;4798;41.574;23.734;2024-03-02T01:39:11;1.00;;;0.80;;
9520;SDS011;4798;41.574;23.734;2024-03-02T01:41:41;0.80;;;0.40;;
9520;SDS011;4798;41.574;23.734;2024-03-02T01:44:10;0.70;;;0.60;;
9520;SDS011;4798;41.574;23.734;2024-03-02T01:46:39;0.77;;;0.77;;
9520;SDS011;4798;41.574;23.734;2024-03-02T01:49:08;0.47;;;0.47;;
9520;SDS011;4798;41.574;23.734;2024-03-02T01:51:36;0.43;;;0.40;;
9520;SDS011;4798;41.574;23.734;2024-03-02T01:54:05;1.33;;;1.27;;
9520;SDS011;4798;41.574;23.734;2024-03-02T01:56:34;0.53;;;0.53;;
9520;SDS011;4798;41.574;23.734;2024-03-02T01:59:04;0.50;;;0.30;;
9520;SDS011;4798;41.574;23.734;2024-03-02T02:01:33;1.50;;;0.47;;
9520;SDS011;4798;41.574;23.734;2024-03-02T02:04:01;0.50;;;0.50;;
9520;SDS011;4798;41.574;23.734;2024-03-02T02:06:30;0.60;;;0.60;;
9520;SDS011;4798;41.574;23.734;2024-03-02T02:08:59;1.17;;;1.17;;
9520;SDS011;4798;41.574;23.734;2024-03-02T02:11:28;1.07;;;0.93;;
9520;SDS011;4798;41.574;23.734;2024-03-02T02:13:57;0.60;;;0.40;;
9520;SDS011;4798;41.574;23.734;2024-03-02T02:16:27;0.70;;;0.70;;
9520;SDS011;4798;41.574;23.734;2024-03-02T02:18:55;0.40;;;0.37;;
9520;SDS011;4798;41.574;23.734;2024-03-02T02:21:25;0.97;;;0.67;;
9520;SDS011;4798;41.574;23.734;2024-03-02T02:23:54;0.40;;;0.30;;
9520;SDS011;4798;41.574;23.734;2024-03-02T02:26:22;0.80;;;0.40;;
9520;SDS011;4798;41.574;23.734;2024-03-02T02:28:51;1.37;;;0.70;;
9520;SDS011;4798;41.574;23.734;2024-03-02T02:31:19;2.43;;;2.30;;
9520;SDS011;4798;41.574;23.734;2024-03-02T02:33:48;3.13;;;0.57;;
9520;SDS011;4798;41.574;23.734;2024-03-02T02:36:16;0.53;;;0.40;;
9520;SDS011;4798;41.574;23.734;2024-03-02T02:38:46;0.50;;;0.40;;
9520;SDS011;4798;41.574;23.734;2024-03-02T02:41:17;1.40;;;1.30;;
9520;SDS011;4798;41.574;23.734;2024-03-02T02:43:45;4.00;;;1.57;;
9520;SDS011;4798;41.574;23.734;2024-03-02T02:46:14;0.60;;;0.53;;
9520;SDS011;4798;41.574;23.734;2024-03-02T02:48:42;1.17;;;1.07;;
9520;SDS011;4798;41.574;23.734;2024-03-02T02:51:11;1.13;;;0.87;;
9520;SDS011;4798;41.574;23.734;2024-03-02T02:53:39;1.03;;;0.60;;
9520;SDS011;4798;41.574;23.734;2024-03-02T02:56:09;0.77;;;0.77;;
9520;SDS011;4798;41.574;23.734;2024-03-02T02:58:39;0.37;;;0.30;;
9520;SDS011;4798;41.574;23.734;2024-03-02T03:01:09;0.83;;;0.83;;
9520;SDS011;4798;41.574;23.734;2024-03-02T03:03:37;10.40;;;1.10;;
9520;SDS011;4798;41.574;23.734;2024-03-02T03:06:06;1.00;;;1.00;;
9520;SDS011;4798;41.574;23.734;2024-03-02T03:08:34;0.67;;;0.67;;
9520;SDS011;4798;41.574;23.734;2024-03-02T03:11:03;0.57;;;0.57;;
9520;SDS011;4798;41.574;23.734;2024-03-02T03:13:34;0.53;;;0.53;;
9520;SDS011;4798;41.574;23.734;2024-03-02T03:16:03;13.77;;;0.77;;
9520;SDS011;4798;41.574;23.734;2024-03-02T03:18:32;0.60;;;0.50;;
9520;SDS011;4798;41.574;23.734;2024-03-02T03:21:01;1.47;;;0.70;;
9520;SDS011;4798;41.574;23.734;2024-03-02T03:23:29;1.93;;;1.33;;
9520;SDS011;4798;41.574;23.734;2024-03-02T03:25:58;0.37;;;0.27;;
9520;SDS011;4798;41.574;23.734;2024-03-02T03:28:27;0.87;;;0.60;;
9520;SDS011;4798;41.574;23.734;2024-03-02T03:30:57;0.83;;;0.83;;
9520;SDS011;4798;41.574;23.734;2024-03-02T03:33:25;0.67;;;0.67;;
9520;SDS011;4798;41.574;23.734;2024-03-02T03:35:54;0.60;;;0.50;;
9520;SDS011;4798;41.574;23.734;2024-03-02T03:38:23;0.60;;;0.37;;
9520;SDS011;4798;41.574;23.734;2024-03-02T03:40:51;0.40;;;0.37;;
9520;SDS011;4798;41.574;23.734;2024-03-02T03:43:20;1.10;;;1.10;;
9520;SDS011;4798;41.574;23.734;2024-03-02T03:45:48;0.43;;;0.43;;
9520;SDS011;4798;41.574;23.734;2024-03-02T03:48:18;0.60;;;0.57;;
9520;SDS011;4798;41.574;23.734;2024-03-02T03:50:47;0.50;;;0.40;;
9520;SDS011;4798;41.574;23.734;2024-03-02T03:53:15;9.93;;;0.87;;
9520;SDS011;4798;41.574;23.734;2024-03-02T03:55:44;1.37;;;0.60;;
9520;SDS011;4798;41.574;23.734;2024-03-02T03:58:15;0.90;;;0.90;;
9520;SDS011;4798;41.574;23.734;2024-03-02T04:00:48;0.30;;;0.23;;
9520;SDS011;4798;41.574;23.734;2024-03-02T04:03:16;0.40;;;0.37;;
9520;SDS011;4798;41.574;23.734;2024-03-02T04:05:47;0.40;;;0.30;;
9520;SDS011;4798;41.574;23.734;2024-03-02T04:08:15;0.40;;;0.30;;
9520;SDS011;4798;41.574;23.734;2024-03-02T04:10:44;0.53;;;0.53;;
9520;SDS011;4798;41.574;23.734;2024-03-02T04:13:12;1.00;;;0.50;;
9520;SDS011;4798;41.574;23.734;2024-03-02T04:15:41;0.40;;;0.40;;
9520;SDS011;4798;41.574;23.734;2024-03-02T04:18:09;1.00;;;0.50;;
9520;SDS011;4798;41.574;23.734;2024-03-02T04:20:40;0.50;;;0.40;;
9520;SDS011;4798;41.574;23.734;2024-03-02T04:23:08;0.47;;;0.43;;
9520;SDS011;4798;41.574;23.734;2024-03-02T04:25:37;0.50;;;0.50;;
9520;SDS011;4798;41.574;23.734;2024-03-02T04:28:05;0.47;;;0.30;;
9520;SDS011;4798;41.574;23.734;2024-03-02T04:30:34;0.70;;;0.50;;
9520;SDS011;4798;41.574;23.734;2024-03-02T04:33:03;0.50;;;0.40;;
9520;SDS011;4798;41.574;23.734;2024-03-02T04:35:34;0.50;;;0.43;;
9520;SDS011;4798;41.574;23.734;2024-03-02T04:38:04;0.60;;;0.60;;
9520;SDS011;4798;41.574;23.734;2024-03-02T04:40:32;0.40;;;0.30;;
9520;SDS011;4798;41.574;23.734;2024-03-02T04:43:01;0.40;;;0.30;;
9520;SDS011;4798;41.574;23.734;2024-03-02T04:45:30;0.40;;;0.30;;
9520;SDS011;4798;41.574;23.734;2024-03-02T04:47:59;2.00;;;0.43;;
9520;SDS011;4798;41.574;23.734;2024-03-02T04:50:27;0.40;;;0.30;;
9520;SDS011;4798;41.574;23.734;2024-03-02T04:52:56;0.50;;;0.40;;
9520;SDS011;4798;41.574;23.734;2024-03-02T04:55:26;0.40;;;0.30;;
9520;SDS011;4798;41.574;23.734;2024-03-02T04:58:23;1.17;;;0.30;;
9520;SDS011;4798;41.574;23.734;2024-03-02T05:00:51;0.60;;;0.57;;
9520;SDS011;4798;41.574;23.734;2024-03-02T05:03:20;1.43;;;1.33;;
9520;SDS011;4798;41.574;23.734;2024-03-02T05:05:49;1.83;;;1.73;;
9520;SDS011;4798;41.574;23.734;2024-03-02T05:08:17;3.27;;;0.70;;
9520;SDS011;4798;41.574;23.734;2024-03-02T05:10:47;1.27;;;1.27;;
9520;SDS011;4798;41.574;23.734;2024-03-02T05:13:16;3.23;;;1.30;;
9520;SDS011;4798;41.574;23.734;2024-03-02T05:15:44;2.87;;;2.20;;
9520;SDS011;4798;41.574;23.734;2024-03-02T05:18:13;2.20;;;1.70;;
9520;SDS011;4798;41.574;23.734;2024-03-02T05:20:42;2.70;;;2.10;;
9520;SDS011;4798;41.574;23.734;2024-03-02T05:23:10;0.77;;;0.73;;
9520;SDS011;4798;41.574;23.734;2024-03-02T05:25:39;1.70;;;1.60;;
9520;SDS011;4798;41.574;23.734;2024-03-02T05:28:09;2.13;;;2.03;;
9520;SDS011;4798;41.574;23.734;2024-03-02T05:30:39;3.60;;;2.13;;
9520;SDS011;4798;41.574;23.734;2024-03-02T05:33:10;1.77;;;1.67;;
9520;SDS011;4798;41.574;23.734;2024-03-02T05:35:39;3.83;;;3.63;;
9520;SDS011;4798;41.574;23.734;2024-03-02T05:38:07;4.53;;;2.50;;
9520;SDS011;4798;41.574;23.734;2024-03-02T05:40:36;3.70;;;3.50;;
9520;SDS011;4798;41.574;23.734;2024-03-02T05:43:04;4.50;;;4.10;;
9520;SDS011;4798;41.574;23.734;2024-03-02T05:45:34;4.60;;;1.97;;
9520;SDS011;4798;41.574;23.734;2024-03-02T05:48:03;5.00;;;4.50;;
9520;SDS011;4798;41.574;23.734;2024-03-02T05:50:32;5.80;;;2.70;;
9520;SDS011;4798;41.574;23.734;2024-03-02T05:53:01;5.00;;;3.40;;
9520;SDS011;4798;41.574;23.734;2024-03-02T05:55:29;4.80;;;4.47;;
9520;SDS011;4798;41.574;23.734;2024-03-02T05:57:58;13.70;;;3.77;;
9520;SDS011;4798;41.574;23.734;2024-03-02T06:00:43;3.03;;;2.83;;
9520;SDS011;4798;41.574;23.734;2024-03-02T06:03:12;6.63;;;3.70;;
9520;SDS011;4798;41.574;23.734;2024-03-02T06:05:40;6.30;;;2.50;;
9520;SDS011;4798;41.574;23.734;2024-03-02T06:08:09;2.80;;;2.60;;
9520;SDS011;4798;41.574;23.734;2024-03-02T06:10:38;3.50;;;2.40;;
9520;SDS011;4798;41.574;23.734;2024-03-02T06:13:06;3.20;;;1.23;;
9520;SDS011;4798;41.574;23.734;2024-03-02T06:15:35;4.30;;;2.27;;
9520;SDS011;4798;41.574;23.734;2024-03-02T06:18:05;2.20;;;2.10;;
9520;SDS011;4798;41.574;23.734;2024-03-02T06:20:34;4.80;;;1.97;;
9520;SDS011;4798;41.574;23.734;2024-03-02T06:23:03;7.03;;;1.83;;
9520;SDS011;4798;41.574;23.734;2024-03-02T06:25:33;4.40;;;1.70;;
9520;SDS011;4798;41.574;23.734;2024-03-02T06:28:01;2.93;;;1.37;;
9520;SDS011;4798;41.574;23.734;2024-03-02T06:30:31;1.53;;;1.47;;
9520;SDS011;4798;41.574;23.734;2024-03-02T06:33:00;4.03;;;1.20;;
9520;SDS011;4798;41.574;23.734;2024-03-02T06:35:32;3.90;;;1.20;;
9520;SDS011;4798;41.574;23.734;2024-03-02T06:38:02;0.83;;;0.83;;
9520;SDS011;4798;41.574;23.734;2024-03-02T06:40:30;3.63;;;1.50;;
9520;SDS011;4798;41.574;23.734;2024-03-02T06:42:59;0.63;;;0.63;;
9520;SDS011;4798;41.574;23.734;2024-03-02T06:45:28;0.83;;;0.60;;
9520;SDS011;4798;41.574;23.734;2024-03-02T06:47:57;1.80;;;1.70;;
9520;SDS011;4798;41.574;23.734;2024-03-02T06:50:26;1.17;;;1.17;;
9520;SDS011;4798;41.574;23.734;2024-03-02T06:52:56;1.00;;;0.57;;
9520;SDS011;4798;41.574;23.734;2024-03-02T06:55:25;0.70;;;0.67;;
9520;SDS011;4798;41.574;23.734;2024-03-02T06:57:53;0.60;;;0.30;;
9520;SDS011;4798;41.574;23.734;2024-03-02T07:00:22;0.60;;;0.40;;
9520;SDS011;4798;41.574;23.734;2024-03-02T07:02:51;0.73;;;0.30;;
9520;SDS011;4798;41.574;23.734;2024-03-02T07:05:19;0.40;;;0.30;;
9520;SDS011;4798;41.574;23.734;2024-03-02T07:07:49;0.40;;;0.40;;
9520;SDS011;4798;41.574;23.734;2024-03-02T07:10:19;0.40;;;0.30;;
9520;SDS011;4798;41.574;23.734;2024-03-02T07:12:47;0.40;;;0.40;;
9520;SDS011;4798;41.574;23.734;2024-03-02T07:15:16;0.40;;;0.30;;
9520;SDS011;4798;41.574;23.734;2024-03-02T07:18:11;0.80;;;0.80;;
9520;SDS011;4798;41.574;23.734;2024-03-02T07:20:39;0.87;;;0.73;;
9520;SDS011;4798;41.574;23.734;2024-03-02T07:23:08;0.50;;;0.30;;
9520;SDS011;4798;41.574;23.734;2024-03-02T07:25:38;0.40;;;0.40;;
9520;SDS011;4798;41.574;23.734;2024-03-02T07:28:10;1.00;;;1.00;;
9520;SDS011;4798;41.574;23.734;2024-03-02T07:30:39;0.57;;;0.40;;
9520;SDS011;4798;41.574;23.734;2024-03-02T07:33:08;0.43;;;0.40;;
9520;SDS011;4798;41.574;23.734;2024-03-02T07:35:36;1.17;;;0.53;;
9520;SDS011;4798;41.574;23.734;2024-03-02T07:38:05;0.40;;;0.30;;
9520;SDS011;4798;41.574;23.734;2024-03-02T07:40:34;0.70;;;0.70;;
9520;SDS011;4798;41.574;23.734;2024-03-02T07:43:04;0.40;;;0.40;;
9520;SDS011;4798;41.574;23.734;2024-03-02T07:45:33;1.33;;;0.40;;
9520;SDS011;4798;41.574;23.734;2024-03-02T07:48:02;0.60;;;0.60;;
9520;SDS011;4798;41.574;23.734;2024-03-02T07:50:31;0.70;;;0.63;;
9520;SDS011;4798;41.574;23.734;2024-03-02T07:53:01;0.97;;;0.97;;
9520;SDS011;4798;41.574;23.734;2024-03-02T07:55:30;0.60;;;0.60;;
9520;SDS011;4798;41.574;23.734;2024-03-02T07:57:59;1.17;;;1.17;;
9520;SDS011;4798;41.574;23.734;2024-03-02T08:00:30;0.40;;;0.30;;
9520;SDS011;4798;41.574;23.734;2024-03-02T08:02:59;1.90;;;1.80;;
9520;SDS011;4798;41.574;23.734;2024-03-02T08:05:28;0.43;;;0.43;;
9520;SDS011;4798;41.574;23.734;2024-03-02T08:07:57;0.40;;;0.40;;
9520;SDS011;4798;41.574;23.734;2024-03-02T08:10:26;0.60;;;0.60;;
9520;SDS011;4798;41.574;23.734;2024-03-02T08:12:55;0.40;;;0.30;;
9520;SDS011;4798;41.574;23.734;2024-03-02T08:15:24;0.40;;;0.40;;
9520;SDS011;4798;41.574;23.734;2024-03-02T08:17:54;0.60;;;0.60;;
9520;SDS011;4798;41.574;23.734;2024-03-02T08:20:23;0.40;;;0.40;;
9520;SDS011;4798;41.574;23.734;2024-03-02T08:22:52;0.40;;;0.30;;
9520;SDS011;4798;41.574;23.734;2024-03-02T08:25:21;0.40;;;0.30;;
9520;SDS011;4798;41.574;23.734;2024-03-02T08:27:50;0.70;;;0.30;;
9520;SDS011;4798;41.574;23.734;2024-03-02T08:30:19;0.40;;;0.30;;
9520;SDS011;4798;41.574;23.734;2024-03-02T08:32:48;0.30;;;0.30;;
9520;SDS011;4798;41.574;23.734;2024-03-02T08:35:18;0.50;;;0.40;;
9520;SDS011;4798;41.574;23.734;2024-03-02T08:37:49;0.40;;;0.30;;
9520;SDS011;4798;41.574;23.734;2024-03-02T08:40:17;0.30;;;0.20;;
9520;SDS011;4798;41.574;23.734;2024-03-02T08:42:46;0.53;;;0.53;;
9520;SDS011;4798;41.574;23.734;2024-03-02T08:45:15;0.40;;;0.30;;
9520;SDS011;4798;41.574;23.734;2024-03-02T08:47:44;0.30;;;0.20;;
9520;SDS011;4798;41.574;23.734;2024-03-02T08:50:12;0.33;;;0.23;;
9520;SDS011;4798;41.574;23.734;2024-03-02T08:52:42;0.30;;;0.20;;
9520;SDS011;4798;41.574;23.734;2024-03-02T08:55:11;0.50;;;0.37;;
9520;SDS011;4798;41.574;23.734;2024-03-02T08:57:40;0.43;;;0.43;;
9520;SDS011;4798;41.574;23.734;2024-03-02T09:00:10;0.70;;;0.40;;
9520;SDS011;4798;41.574;23.734;2024-03-02T09:02:39;0.60;;;0.60;;
9520;SDS011;4798;41.574;23.734;2024-03-02T09:05:08;1.00;;;0.90;;
9520;SDS011;4798;41.574;23.734;2024-03-02T09:07:36;0.40;;;0.33;;
9520;SDS011;4798;41.574;23.734;2024-03-02T09:10:07;0.70;;;0.70;;
9520;SDS011;4798;41.574;23.734;2024-03-02T09:12:37;0.60;;;0.40;;
9520;SDS011;4798;41.574;23.734;2024-03-02T09:15:06;0.40;;;0.37;;
9520;SDS011;4798;41.574;23.734;2024-03-02T09:17:35;0.60;;;0.43;;
9520;SDS011;4798;41.574;23.734;2024-03-02T09:20:04;0.40;;;0.30;;
9520;SDS011;4798;41.574;23.734;2024-03-02T09:22:33;0.40;;;0.30;;
9520;SDS011;4798;41.574;23.734;2024-03-02T09:25:02;0.70;;;0.70;;
9520;SDS011;4798;41.574;23.734;2024-03-02T09:27:33;2.20;;;2.00;;
9520;SDS011;4798;41.574;23.734;2024-03-02T09:30:01;0.60;;;0.40;;
9520;SDS011;4798;41.574;23.734;2024-03-02T09:32:31;0.47;;;0.47;;
9520;SDS011;4798;41.574;23.734;2024-03-02T09:35:00;0.50;;;0.50;;
9520;SDS011;4798;41.574;23.734;2024-03-02T09:37:29;0.40;;;0.30;;
9520;SDS011;4798;41.574;23.734;2024-03-02T09:39:57;0.50;;;0.47;;
9520;SDS011;4798;41.574;23.734;2024-03-02T09:42:27;0.60;;;0.60;;
9520;SDS011;4798;41.574;23.734;2024-03-02T09:44:58;1.07;;;0.60;;
9520;SDS011;4798;41.574;23.734;2024-03-02T09:47:27;0.50;;;0.50;;
9520;SDS011;4798;41.574;23.734;2024-03-02T09:49:56;0.60;;;0.50;;
9520;SDS011;4798;41.574;23.734;2024-03-02T09:52:24;0.40;;;0.40;;
9520;SDS011;4798;41.574;23.734;2024-03-02T09:54:53;0.60;;;0.50;;
9520;SDS011;4798;41.574;23.734;2024-03-02T09:57:22;0.80;;;0.80;;
9520;SDS011;4798;41.574;23.734;2024-03-02T09:59:50;0.80;;;0.80;;
9520;SDS011;4798;41.574;23.734;2024-03-02T10:02:20;0.60;;;0.50;;
9520;SDS011;4798;41.574;23.734;2024-03-02T10:04:49;1.30;;;1.30;;
9520;SDS011;4798;41.574;23.734;2024-03-02T10:07:18;3.10;;;1.67;;
9520;SDS011;4798;41.574;23.734;2024-03-02T10:09:47;1.17;;;1.17;;
9520;SDS011;4798;41.574;23.734;2024-03-02T10:12:18;1.97;;;1.87;;
9520;SDS011;4798;41.574;23.734;2024-03-02T10:14:47;0.50;;;0.50;;
9520;SDS011;4798;41.574;23.734;2024-03-02T10:17:18;1.63;;;0.87;;
9520;SDS011;4798;41.574;23.734;2024-03-02T10:19:48;1.50;;;1.40;;
9520;SDS011;4798;41.574;23.734;2024-03-02T10:22:17;3.90;;;0.77;;
9520;SDS011;4798;41.574;23.734;2024-03-02T10:24:45;0.80;;;0.80;;
9520;SDS011;4798;41.574;23.734;2024-03-02T10:27:22;1.13;;;0.90;;
9520;SDS011;4798;41.574;23.734;2024-03-02T10:29:54;1.90;;;1.80;;
9520;SDS011;4798;41.574;23.734;2024-03-02T10:32:23;2.00;;;1.10;;
9520;SDS011;4798;41.574;23.734;2024-03-02T10:34:53;11.13;;;4.47;;
9520;SDS011;4798;41.574;23.734;2024-03-02T10:37:24;30.53;;;4.53;;
9520;SDS011;4798;41.574;23.734;2024-03-02T10:39:52;3.70;;;3.40;;
9520;SDS011;4798;41.574;23.734;2024-03-02T10:42:21;2.80;;;2.20;;
9520;SDS011;4798;41.574;23.734;2024-03-02T10:44:52;8.50;;;3.00;;
9520;SDS011;4798;41.574;23.734;2024-03-02T10:47:21;6.10;;;1.43;;
9520;SDS011;4798;41.574;23.734;2024-03-02T10:49:51;2.87;;;2.13;;
9520;SDS011;4798;41.574;23.734;2024-03-02T10:52:22;3.10;;;1.60;;
9520;SDS011;4798;41.574;23.734;2024-03-02T10:54:51;2.47;;;0.40;;
9520;SDS011;4798;41.574;23.734;2024-03-02T10:57:20;0.90;;;0.90;;
9520;SDS011;4798;41.574;23.734;2024-03-02T10:59:52;0.80;;;0.50;;
9520;SDS011;4798;41.574;23.734;2024-03-02T11:02:24;0.40;;;0.30;;
9520;SDS011;4798;41.574;23.734;2024-03-02T11:04:57;0.40;;;0.37;;
9520;SDS011;4798;41.574;23.734;2024-03-02T11:07:34;0.60;;;0.60;;
9520;SDS011;4798;41.574;23.734;2024-03-02T11:10:05;2.40;;;0.80;;
9520;SDS011;4798;41.574;23.734;2024-03-02T11:12:38;0.50;;;0.50;;
9520;SDS011;4798;41.574;23.734;2024-03-02T11:15:12;0.70;;;0.70;;
9520;SDS011;4798;41.574;23.734;2024-03-02T11:17:45;0.60;;;0.40;;
9520;SDS011;4798;41.574;23.734;2024-03-02T11:20:17;0.50;;;0.40;;
9520;SDS011;4798;41.574;23.734;2024-03-02T11:22:47;0.50;;;0.40;;
9520;SDS011;4798;41.574;23.734;2024-03-02T11:25:25;0.60;;;0.60;;
9520;SDS011;4798;41.574;23.734;2024-03-02T11:28:02;1.57;;;1.47;;
9520;SDS011;4798;41.574;23.734;2024-03-02T11:30:49;0.40;;;0.30;;
9520;SDS011;4798;41.574;23.734;2024-03-02T11:33:25;0.40;;;0.30;;
9520;SDS011;4798;41.574;23.734;2024-03-02T11:35:58;1.33;;;0.57;;
9520;SDS011;4798;41.574;23.734;2024-03-02T11:38:32;0.40;;;0.30;;
9520;SDS011;4798;41.574;23.734;2024-03-02T11:41:02;0.40;;;0.30;;
9520;SDS011;4798;41.574;23.734;2024-03-02T11:43:37;0.43;;;0.33;;
9520;SDS011;4798;41.574;23.734;2024-03-02T11:46:07;0.90;;;0.33;;
9520;SDS011;4798;41.574;23.734;2024-03-02T11:48:36;0.60;;;0.53;;
9520;SDS011;4798;41.574;23.734;2024-03-02T11:51:08;3.63;;;1.60;;
9520;SDS011;4798;41.574;23.734;2024-03-02T11:53:39;0.70;;;0.70;;
9520;SDS011;4798;41.574;23.734;2024-03-02T11:56:09;1.10;;;1.10;;
9520;SDS011;4798;41.574;23.734;2024-03-02T11:58:40;1.00;;;0.83;;
9520;SDS011;4798;41.574;23.734;2024-03-02T12:01:11;1.07;;;0.70;;
9520;SDS011;4798;41.574;23.734;2024-03-02T12:03:41;0.80;;;0.50;;
9520;SDS011;4798;41.574;23.734;2024-03-02T12:06:11;0.50;;;0.40;;
9520;SDS011;4798;41.574;23.734;2024-03-02T12:08:41;0.40;;;0.30;;
9520;SDS011;4798;41.574;23.734;2024-03-02T12:11:12;1.03;;;0.60;;
9520;SDS011;4798;41.574;23.734;2024-03-02T12:13:51;0.60;;;0.30;;
9520;SDS011;4798;41.574;23.734;2024-03-02T12:16:24;0.70;;;0.63;;
9520;SDS011;4798;41.574;23.734;2024-03-02T12:18:53;0.40;;;0.30;;
9520;SDS011;4798;41.574;23.734;2024-03-02T12:21:24;0.60;;;0.50;;
9520;SDS011;4798;41.574;23.734;2024-03-02T12:23:53;0.40;;;0.40;;
9520;SDS011;4798;41.574;23.734;2024-03-02T12:26:21;0.60;;;0.60;;
9520;SDS011;4798;41.574;23.734;2024-03-02T12:28:50;0.40;;;0.30;;
9520;SDS011;4798;41.574;23.734;2024-03-02T12:31:20;0.40;;;0.30;;
9520;SDS011;4798;41.574;23.734;2024-03-02T12:33:49;0.40;;;0.40;;
9520;SDS011;4798;41.574;23.734;2024-03-02T12:36:18;1.67;;;0.57;;
9520;SDS011;4798;41.574;23.734;2024-03-02T12:38:48;0.40;;;0.30;;
9520;SDS011;4798;41.574;23.734;2024-03-02T12:41:21;0.40;;;0.30;;
9520;SDS011;4798;41.574;23.734;2024-03-02T12:43:50;0.40;;;0.33;;
9520;SDS011;4798;41.574;23.734;2024-03-02T12:46:19;0.40;;;0.40;;
9520;SDS011;4798;41.574;23.734;2024-03-02T12:48:47;1.27;;;0.40;;
9520;SDS011;4798;41.574;23.734;2024-03-02T12:51:16;0.50;;;0.47;;
9520;SDS011;4798;41.574;23.734;2024-03-02T12:53:45;0.40;;;0.30;;
9520;SDS011;4798;41.574;23.734;2024-03-02T12:56:22;0.93;;;0.93;;
9520;SDS011;4798;41.574;23.734;2024-03-02T12:58:52;0.63;;;0.63;;
9520;SDS011;4798;41.574;23.734;2024-03-02T13:01:22;3.90;;;0.90;;
9520;SDS011;4798;41.574;23.734;2024-03-02T13:03:52;0.50;;;0.40;;
9520;SDS011;4798;41.574;23.734;2024-03-02T13:06:21;0.63;;;0.50;;
9520;SDS011;4798;41.574;23.734;2024-03-02T13:08:50;0.93;;;0.87;;
9520;SDS011;4798;41.574;23.734;2024-03-02T13:11:20;0.53;;;0.53;;
9520;SDS011;4798;41.574;23.734;2024-03-02T13:13:51;0.80;;;0.63;;
9520;SDS011;4798;41.574;23.734;2024-03-02T13:16:23;0.77;;;0.77;;
9520;SDS011;4798;41.574;23.734;2024-03-02T13:18:58;2.00;;;1.40;;
9520;SDS011;4798;41.574;23.734;2024-03-02T13:21:29;0.80;;;0.60;;
9520;SDS011;4798;41.574;23.734;2024-03-02T13:23:58;1.20;;;1.20;;
9520;SDS011;4798;41.574;23.734;2024-03-02T13:26:32;1.30;;;0.60;;
9520;SDS011;4798;41.574;23.734;2024-03-02T13:29:00;0.40;;;0.30;;
9520;SDS011;4798;41.574;23.734;2024-03-02T13:31:29;0.73;;;0.73;;
9520;SDS011;4798;41.574;23.734;2024-03-02T13:33:58;1.00;;;0.67;;
9520;SDS011;4798;41.574;23.734;2024-03-02T13:36:26;0.60;;;0.60;;
9520;SDS011;4798;41.574;23.734;2024-03-02T13:38:55;4.10;;;0.60;;
9520;SDS011;4798;41.574;23.734;2024-03-02T13:41:25;0.57;;;0.57;;
9520;SDS011;4798;41.574;23.734;2024-03-02T13:43:55;0.90;;;0.90;;
9520;SDS011;4798;41.574;23.734;2024-03-02T13:46:23;0.87;;;0.60;;
9520;SDS011;4798;41.574;23.734;2024-03-02T13:48:52;0.90;;;0.90;;
9520;SDS011;4798;41.574;23.734;2024-03-02T13:51:22;0.43;;;0.40;;
9520;SDS011;4798;41.574;23.734;2024-03-02T13:53:52;0.57;;;0.50;;
9520;SDS011;4798;41.574;23.734;2024-03-02T13:56:20;0.50;;;0.40;;
9520;SDS011;4798;41.574;23.734;2024-03-02T13:58:49;2.50;;;0.80;;
9520;SDS011;4798;41.574;23.734;2024-03-02T14:01:19;0.40;;;0.30;;
9520;SDS011;4798;41.574;23.734;2024-03-02T14:03:48;1.07;;;0.70;;
9520;SDS011;4798;41.574;23.734;2024-03-02T14:06:17;0.87;;;0.87;;
9520;SDS011;4798;41.574;23.734;2024-03-02T14:08:46;0.87;;;0.50;;
9520;SDS011;4798;41.574;23.734;2024-03-02T14:11:15;0.83;;;0.77;;
9520;SDS011;4798;41.574;23.734;2024-03-02T14:13:44;0.90;;;0.90;;
9520;SDS011;4798;41.574;23.734;2024-03-02T14:16:16;0.60;;;0.60;;
9520;SDS011;4798;41.574;23.734;2024-03-02T14:18:46;1.17;;;0.67;;
9520;SDS011;4798;41.574;23.734;2024-03-02T14:21:15;3.27;;;0.70;;
9520;SDS011;4798;41.574;23.734;2024-03-02T14:23:43;0.70;;;0.70;;
9520;SDS011;4798;41.574;23.734;2024-03-02T14:26:12;0.63;;;0.63;;
9520;SDS011;4798;41.574;23.734;2024-03-02T14:28:41;1.17;;;1.00;;
9520;SDS011;4798;41.574;23.734;2024-03-02T14:31:17;8.13;;;0.70;;
9520;SDS011;4798;41.574;23.734;2024-03-02T14:33:48;0.50;;;0.40;;
9520;SDS011;4798;41.574;23.734;2024-03-02T14:36:16;2.00;;;0.60;;
9520;SDS011;4798;41.574;23.734;2024-03-02T14:38:45;2.20;;;0.73;;
9520;SDS011;4798;41.574;23.734;2024-03-02T14:41:14;0.80;;;0.63;;
9520;SDS011;4798;41.574;23.734;2024-03-02T14:43:43;0.80;;;0.50;;
9520;SDS011;4798;41.574;23.734;2024-03-02T14:46:12;1.60;;;1.50;;
9520;SDS011;4798;41.574;23.734;2024-03-02T14:48:40;1.20;;;1.17;;
9520;SDS011;4798;41.574;23.734;2024-03-02T14:51:10;0.60;;;0.40;;
9520;SDS011;4798;41.574;23.734;2024-03-02T14:53:40;0.83;;;0.83;;
9520;SDS011;4798;41.574;23.734;2024-03-02T14:56:08;1.10;;;0.67;;
9520;SDS011;4798;41.574;23.734;2024-03-02T14:58:37;0.90;;;0.90;;
9520;SDS011;4798;41.574;23.734;2024-03-02T15:01:08;0.50;;;0.50;;
9520;SDS011;4798;41.574;23.734;2024-03-02T15:03:36;1.73;;;0.87;;
9520;SDS011;4798;41.574;23.734;2024-03-02T15:06:06;1.43;;;0.67;;
9520;SDS011;4798;41.574;23.734;2024-03-02T15:08:36;1.53;;;1.43;;
9520;SDS011;4798;41.574;23.734;2024-03-02T15:11:05;1.93;;;1.50;;
9520;SDS011;4798;41.574;23.734;2024-03-02T15:13:33;2.67;;;0.70;;
9520;SDS011;4798;41.574;23.734;2024-03-02T15:16:02;1.10;;;1.03;;